ILK YBAF-YBAF
Flight info
| Callsign | ILK |
|---|---|
| Flight time | N/A |
| Altitude | 4000 |
| Route | YBAF DCT 270814S1532151E |
| Aircraft | TBM9/L-V/N |
Departure
| Time | 2026-04-21 06:15 |
|---|---|
| Airport | Brisbane Archerfield Airport (YBAF) |
Arrival
| Time | N/A |
|---|---|
| Airport | Brisbane Archerfield Airport (YBAF) |
| Time | Latitude | Longitude | Altitude | Speed | Heading |
|---|---|---|---|---|---|
| 2026-04-21 06:10 | -27.57327 | 153.01156 | 37 ft | 0 kts | 191° |
| 2026-04-21 06:11 | -27.57328 | 153.01156 | 37 ft | 2 kts | 190° |
| 2026-04-21 06:11 | -27.57353 | 153.01126 | 35 ft | 9 kts | 243° |
| 2026-04-21 06:11 | -27.57413 | 153.01076 | 31 ft | 13 kts | 258° |
| 2026-04-21 06:12 | -27.57393 | 153.00975 | 31 ft | 14 kts | 290° |
| 2026-04-21 06:12 | -27.57346 | 153.00809 | 36 ft | 32 kts | 286° |
| 2026-04-21 06:12 | -27.57268 | 153.00521 | 38 ft | 45 kts | 288° |
| 2026-04-21 06:12 | -27.57153 | 153.00136 | 38 ft | 39 kts | 290° |
| 2026-04-21 06:13 | -27.57137 | 153.00090 | 39 ft | 3 kts | 288° |
| 2026-04-21 06:13 | -27.57059 | 153.00085 | 38 ft | 20 kts | 356° |
| 2026-04-21 06:13 | -27.57042 | 153.00082 | 38 ft | 0 kts | 351° |
| 2026-04-21 06:13 | -27.57034 | 153.00103 | 38 ft | 12 kts | 196° |
| 2026-04-21 06:14 | -27.57136 | 153.00075 | 39 ft | 13 kts | 121° |
| 2026-04-21 06:14 | -27.57207 | 153.00323 | 38 ft | 64 kts | 109° |
| 2026-04-21 06:14 | -27.57391 | 153.00983 | 214 ft | 101 kts | 112° |
| 2026-04-21 06:14 | -27.57642 | 153.01781 | 653 ft | 118 kts | 113° |
| 2026-04-21 06:15 | -27.57950 | 153.02595 | 1389 ft | 108 kts | 117° |
| 2026-04-21 06:15 | -27.57720 | 153.03477 | 1817 ft | 140 kts | 58° |
| 2026-04-21 06:15 | -27.56974 | 153.04333 | 2192 ft | 160 kts | 51° |
| 2026-04-21 06:15 | -27.56209 | 153.05254 | 2772 ft | 162 kts | 54° |
| 2026-04-21 06:16 | -27.55438 | 153.06206 | 3250 ft | 174 kts | 54° |
| 2026-04-21 06:16 | -27.54589 | 153.07282 | 3518 ft | 196 kts | 53° |
| 2026-04-21 06:16 | -27.53699 | 153.08445 | 4090 ft | 194 kts | 56° |
| 2026-04-21 06:16 | -27.52826 | 153.09700 | 4428 ft | 204 kts | 62° |
| 2026-04-21 06:17 | -27.52245 | 153.11101 | 5036 ft | 200 kts | 72° |
| 2026-04-21 06:17 | -27.51742 | 153.12637 | 4889 ft | 220 kts | 82° |
| 2026-04-21 06:17 | -27.51581 | 153.14374 | 4810 ft | 221 kts | 91° |
| 2026-04-21 06:17 | -27.51442 | 153.16094 | 4833 ft | 223 kts | 82° |
| 2026-04-21 06:18 | -27.50756 | 153.17684 | 4917 ft | 228 kts | 62° |
| 2026-04-21 06:18 | -27.49694 | 153.19027 | 4951 ft | 232 kts | 47° |
| 2026-04-21 06:18 | -27.48511 | 153.20271 | 4980 ft | 232 kts | 46° |
| 2026-04-21 06:18 | -27.47330 | 153.21489 | 5110 ft | 229 kts | 46° |
| 2026-04-21 06:19 | -27.46256 | 153.22823 | 5085 ft | 230 kts | 58° |
| 2026-04-21 06:19 | -27.45321 | 153.24214 | 5427 ft | 219 kts | 57° |
| 2026-04-21 06:19 | -27.44144 | 153.25411 | 5009 ft | 246 kts | 33° |
| 2026-04-21 06:19 | -27.42675 | 153.26345 | 4879 ft | 250 kts | 27° |
| 2026-04-21 06:20 | -27.41047 | 153.27082 | 4534 ft | 257 kts | 24° |
| 2026-04-21 06:20 | -27.39412 | 153.27849 | 4357 ft | 253 kts | 25° |
| 2026-04-21 06:20 | -27.37735 | 153.28525 | 3962 ft | 260 kts | 20° |
| 2026-04-21 06:20 | -27.36021 | 153.29192 | 3687 ft | 259 kts | 20° |
| 2026-04-21 06:21 | -27.34329 | 153.29794 | 3667 ft | 251 kts | 19° |
| 2026-04-21 06:21 | -27.32672 | 153.30366 | 3636 ft | 248 kts | 19° |
| 2026-04-21 06:21 | -27.31027 | 153.30932 | 3528 ft | 248 kts | 19° |
| 2026-04-21 06:21 | -27.29360 | 153.31548 | 3168 ft | 256 kts | 24° |
| 2026-04-21 06:22 | -27.27714 | 153.32320 | 2909 ft | 254 kts | 29° |
| 2026-04-21 06:22 | -27.26267 | 153.33406 | 2688 ft | 248 kts | 49° |
| 2026-04-21 06:22 | -27.25257 | 153.34923 | 2402 ft | 238 kts | 62° |
| 2026-04-21 06:22 | -27.24295 | 153.36296 | 2054 ft | 216 kts | 50° |
| 2026-04-21 06:23 | -27.22993 | 153.37057 | 1485 ft | 218 kts | 15° |
| 2026-04-21 06:23 | -27.21527 | 153.37107 | 1217 ft | 197 kts | 1° |
| 2026-04-21 06:23 | -27.20207 | 153.37022 | 1086 ft | 189 kts | 357° |
| 2026-04-21 06:23 | -27.18963 | 153.36922 | 981 ft | 179 kts | 353° |
| 2026-04-21 06:24 | -27.17703 | 153.36730 | 794 ft | 178 kts | 358° |
| 2026-04-21 06:24 | -27.16536 | 153.36617 | 600 ft | 163 kts | 0° |
| 2026-04-21 06:24 | -27.15459 | 153.36559 | 425 ft | 147 kts | 4° |
| 2026-04-21 06:24 | -27.14504 | 153.36464 | 160 ft | 120 kts | 4° |
| 2026-04-21 06:25 | -27.13786 | 153.36417 | 12 ft | 72 kts | 354° |
| 2026-04-21 06:25 | -27.13528 | 153.36406 | 7 ft | 26 kts | 354° |
| 2026-04-21 06:25 | -27.13394 | 153.36356 | 8 ft | 18 kts | 31° |
| 2026-04-21 06:25 | -27.13426 | 153.36402 | 8 ft | 5 kts | 148° |
| 2026-04-21 06:26 | -27.13432 | 153.36405 | 8 ft | 0 kts | 166° |
| 2026-04-21 06:27 | -27.13612 | 153.36417 | 8 ft | 55 kts | 177° |
| 2026-04-21 06:27 | -27.14159 | 153.36437 | 164 ft | 92 kts | 171° |
| 2026-04-21 06:27 | -27.14913 | 153.36485 | 360 ft | 129 kts | 172° |
| 2026-04-21 06:27 | -27.15943 | 153.36463 | 516 ft | 167 kts | 182° |
| 2026-04-21 06:28 | -27.17189 | 153.36302 | 729 ft | 189 kts | 183° |
| 2026-04-21 06:28 | -27.18392 | 153.35826 | 1279 ft | 196 kts | 218° |
| 2026-04-21 06:28 | -27.18727 | 153.34274 | 1510 ft | 226 kts | 278° |
| 2026-04-21 06:28 | -27.17747 | 153.32911 | 1855 ft | 241 kts | 334° |
| 2026-04-21 06:29 | -27.16128 | 153.32827 | 2009 ft | 235 kts | 17° |
| 2026-04-21 06:29 | -27.14579 | 153.33312 | 2306 ft | 235 kts | 21° |
| 2026-04-21 06:29 | -27.13162 | 153.34140 | 2349 ft | 229 kts | 60° |
| 2026-04-21 06:29 | -27.12687 | 153.35775 | 2343 ft | 217 kts | 88° |
| 2026-04-21 06:30 | -27.12537 | 153.36885 | 2302 ft | 218 kts | 89° |
| 2026-04-21 06:30 | -27.12455 | 153.38600 | 1971 ft | 216 kts | 116° |
| 2026-04-21 06:30 | -27.13554 | 153.39426 | 2007 ft | 197 kts | 179° |
| 2026-04-21 06:30 | -27.14940 | 153.39478 | 1816 ft | 198 kts | 175° |
| 2026-04-21 06:31 | -27.16317 | 153.39467 | 1699 ft | 205 kts | 187° |
| 2026-04-21 06:31 | -27.17467 | 153.38682 | 1549 ft | 188 kts | 232° |
| 2026-04-21 06:31 | -27.17539 | 153.37309 | 1367 ft | 159 kts | 278° |
| 2026-04-21 06:31 | -27.16835 | 153.36506 | 1037 ft | 137 kts | 343° |
| 2026-04-21 06:32 | -27.15932 | 153.36507 | 539 ft | 118 kts | 10° |
| 2026-04-21 06:32 | -27.15178 | 153.36519 | 350 ft | 106 kts | 7° |
| 2026-04-21 06:32 | -27.14409 | 153.36475 | 99 ft | 114 kts | 1° |
| 2026-04-21 06:32 | -27.13734 | 153.36414 | 11 ft | 59 kts | 355° |
| 2026-04-21 06:33 | -27.13246 | 153.36354 | 10 ft | 95 kts | 354° |
| 2026-04-21 06:33 | -27.12462 | 153.36246 | 251 ft | 124 kts | 356° |
| 2026-04-21 06:33 | -27.11572 | 153.36106 | 728 ft | 131 kts | 358° |
| 2026-04-21 06:33 | -27.10679 | 153.36013 | 1278 ft | 132 kts | 4° |
| 2026-04-21 06:34 | -27.09848 | 153.35992 | 1998 ft | 111 kts | 359° |
| 2026-04-21 06:34 | -27.09039 | 153.35822 | 2404 ft | 116 kts | 346° |
| 2026-04-21 06:34 | -27.08460 | 153.35621 | 2699 ft | 86 kts | 300° |
| 2026-04-21 06:34 | -27.08057 | 153.34952 | 3083 ft | 22 kts | 167° |
| 2026-04-21 06:35 | -27.07717 | 153.35112 | 1950 ft | 201 kts | 32° |
| 2026-04-21 06:35 | -27.06489 | 153.35830 | 1532 ft | 195 kts | 38° |
| 2026-04-21 06:35 | -27.05922 | 153.36788 | 1677 ft | 136 kts | 110° |
| 2026-04-21 06:35 | -27.06602 | 153.37413 | 1648 ft | 147 kts | 176° |
| 2026-04-21 06:36 | -27.07674 | 153.36943 | 1190 ft | 170 kts | 202° |
| 2026-04-21 06:36 | -27.08695 | 153.36447 | 921 ft | 149 kts | 194° |
| 2026-04-21 06:36 | -27.09646 | 153.36078 | 704 ft | 139 kts | 184° |
| 2026-04-21 06:36 | -27.10529 | 153.36043 | 639 ft | 111 kts | 179° |
| 2026-04-21 06:37 | -27.11243 | 153.36060 | 435 ft | 103 kts | 168° |
| 2026-04-21 06:37 | -27.11888 | 153.36160 | 349 ft | 81 kts | 168° |
| 2026-04-21 06:37 | -27.12364 | 153.36225 | 246 ft | 65 kts | 167° |
| 2026-04-21 06:37 | -27.12801 | 153.36293 | 171 ft | 61 kts | 163° |
| 2026-04-21 06:38 | -27.13235 | 153.36348 | 55 ft | 62 kts | 167° |
| 2026-04-21 06:38 | -27.13600 | 153.36395 | 8 ft | 43 kts | 168° |
| 2026-04-21 06:38 | -27.13735 | 153.36439 | 11 ft | 8 kts | 100° |
| 2026-04-21 06:38 | -27.13755 | 153.36469 | 12 ft | 6 kts | 130° |
| 2026-04-21 06:39 | -27.13762 | 153.36455 | 12 ft | 11 kts | 75° |
| 2026-04-21 06:39 | -27.13735 | 153.36419 | 11 ft | 0 kts | 182° |
| 2026-04-21 06:39 | -27.13862 | 153.36428 | 13 ft | 44 kts | 187° |
| 2026-04-21 06:39 | -27.14317 | 153.36452 | 157 ft | 78 kts | 169° |
| 2026-04-21 06:40 | -27.14958 | 153.36516 | 423 ft | 102 kts | 167° |
| 2026-04-21 06:40 | -27.15638 | 153.36610 | 1067 ft | 93 kts | 172° |
| 2026-04-21 06:40 | -27.16297 | 153.36625 | 1509 ft | 105 kts | 178° |
| 2026-04-21 06:40 | -27.17081 | 153.36526 | 1989 ft | 116 kts | 194° |
| 2026-04-21 06:41 | -27.17533 | 153.35730 | 2377 ft | 162 kts | 265° |
| 2026-04-21 06:41 | -27.16740 | 153.34613 | 2471 ft | 207 kts | 346° |
| 2026-04-21 06:41 | -27.15271 | 153.34653 | 2531 ft | 227 kts | 10° |
| 2026-04-21 06:41 | -27.13660 | 153.34920 | 2647 ft | 240 kts | 12° |
| 2026-04-21 06:42 | -27.11988 | 153.35222 | 2806 ft | 247 kts | 359° |
| 2026-04-21 06:42 | -27.10266 | 153.34963 | 2858 ft | 254 kts | 355° |
| 2026-04-21 06:42 | -27.08479 | 153.35323 | 2309 ft | 271 kts | 34° |
| 2026-04-21 06:42 | -27.08084 | 153.37014 | 2306 ft | 226 kts | 120° |
| 2026-04-21 06:43 | -27.08926 | 153.38434 | 2450 ft | 204 kts | 132° |
| 2026-04-21 06:43 | -27.09905 | 153.39487 | 2945 ft | 191 kts | 148° |
| 2026-04-21 06:43 | -27.10669 | 153.40009 | 4903 ft | 71 kts | 159° |
| 2026-04-21 06:43 | -27.10847 | 153.40239 | 5083 ft | 58 kts | 127° |
| 2026-04-21 06:44 | -27.11504 | 153.41245 | 3821 ft | 205 kts | 137° |
| 2026-04-21 06:44 | -27.11742 | 153.41511 | 3674 ft | 213 kts | 140° |